sensor_id;sensor_type;location;lat;lon;timestamp;pressure;altitude;pressure_sealevel;temperature;humidity
73422;BME280;61637;47.760;-122.022;2023-02-28T00:00:01;99898.50499999999;;;5.6;unknown
73422;BME280;61637;47.760;-122.022;2023-02-28T00:02:01;99898.50499999999;;;5.6;unknown
73422;BME280;61637;47.760;-122.022;2023-02-28T00:04:01;99898.50499999999;;;5.6;unknown
73422;BME280;61637;47.760;-122.022;2023-02-28T00:06:01;99898.50499999999;;;5.6;unknown
73422;BME280;61637;47.760;-122.022;2023-02-28T00:08:01;99898.50499999999;;;5.6;unknown
73422;BME280;61637;47.760;-122.022;2023-02-28T00:10:01;99898.50499999999;;;5.6;unknown
73422;BME280;61637;47.760;-122.022;2023-02-28T00:12:01;99898.50499999999;;;5.6;unknown
73422;BME280;61637;47.760;-122.022;2023-02-28T00:14:01;99898.50499999999;;;5.6;unknown
73422;BME280;61637;47.760;-122.022;2023-02-28T00:16:01;99898.50499999999;;;5.6;unknown
73422;BME280;61637;47.760;-122.022;2023-02-28T00:18:01;99898.50499999999;;;5.6;unknown
73422;BME280;61637;47.760;-122.022;2023-02-28T00:20:01;99898.50499999999;;;5.5;unknown
73422;BME280;61637;47.760;-122.022;2023-02-28T00:22:01;99898.50499999999;;;5.4;unknown
73422;BME280;61637;47.760;-122.022;2023-02-28T00:24:01;99898.50499999999;;;5.4;unknown
73422;BME280;61637;47.760;-122.022;2023-02-28T00:26:01;99898.50499999999;;;5.3;unknown
73422;BME280;61637;47.760;-122.022;2023-02-28T00:28:01;99898.50499999999;;;5.3;unknown
73422;BME280;61637;47.760;-122.022;2023-02-28T00:30:01;99898.50499999999;;;5.2;unknown
73422;BME280;61637;47.760;-122.022;2023-02-28T00:32:01;99559.866;;;5.2;unknown
73422;BME280;61637;47.760;-122.022;2023-02-28T00:34:01;99559.866;;;5.2;unknown
73422;BME280;61637;47.760;-122.022;2023-02-28T00:36:01;99559.866;;;5.1;unknown
73422;BME280;61637;47.760;-122.022;2023-02-28T00:38:01;99898.50499999999;;;5.1;unknown
73422;BME280;61637;47.760;-122.022;2023-02-28T00:40:01;99898.50499999999;;;5.1;unknown
73422;BME280;61637;47.760;-122.022;2023-02-28T00:42:01;99559.866;;;5.0;unknown
73422;BME280;61637;47.760;-122.022;2023-02-28T00:44:01;99559.866;;;4.9;unknown
73422;BME280;61637;47.760;-122.022;2023-02-28T00:46:01;99898.50499999999;;;4.9;unknown
73422;BME280;61637;47.760;-122.022;2023-02-28T00:48:01;99559.866;;;4.9;unknown
73422;BME280;61637;47.760;-122.022;2023-02-28T00:50:01;99559.866;;;4.8;unknown
73422;BME280;61637;47.760;-122.022;2023-02-28T00:52:01;99559.866;;;4.8;unknown
73422;BME280;61637;47.760;-122.022;2023-02-28T00:54:01;99559.866;;;4.7;unknown
73422;BME280;61637;47.760;-122.022;2023-02-28T00:56:01;99559.866;;;4.7;unknown
73422;BME280;61637;47.760;-122.022;2023-02-28T00:58:01;99559.866;;;4.7;unknown
73422;BME280;61637;47.760;-122.022;2023-02-28T01:00:01;99559.866;;;4.6;unknown
73422;BME280;61637;47.760;-122.022;2023-02-28T01:02:01;99559.866;;;4.5;unknown
73422;BME280;61637;47.760;-122.022;2023-02-28T01:04:01;99559.866;;;4.4;unknown
73422;BME280;61637;47.760;-122.022;2023-02-28T01:06:01;99559.866;;;4.4;unknown
73422;BME280;61637;47.760;-122.022;2023-02-28T01:08:01;99559.866;;;4.3;unknown
73422;BME280;61637;47.760;-122.022;2023-02-28T01:10:01;99559.866;;;4.2;unknown
73422;BME280;61637;47.760;-122.022;2023-02-28T01:12:01;99559.866;;;4.2;unknown
73422;BME280;61637;47.760;-122.022;2023-02-28T01:14:01;99559.866;;;4.1;unknown
73422;BME280;61637;47.760;-122.022;2023-02-28T01:16:01;99559.866;;;4.0;unknown
73422;BME280;61637;47.760;-122.022;2023-02-28T01:18:01;99559.866;;;3.9;unknown
73422;BME280;61637;47.760;-122.022;2023-02-28T01:20:01;99559.866;;;3.8;unknown
73422;BME280;61637;47.760;-122.022;2023-02-28T01:22:01;99559.866;;;3.7;unknown
73422;BME280;61637;47.760;-122.022;2023-02-28T01:24:01;99559.866;;;3.7;unknown
73422;BME280;61637;47.760;-122.022;2023-02-28T01:26:03;99559.866;;;3.7;unknown
73422;BME280;61637;47.760;-122.022;2023-02-28T01:28:01;99559.866;;;3.6;unknown
73422;BME280;61637;47.760;-122.022;2023-02-28T01:30:01;99559.866;;;3.6;unknown
73422;BME280;61637;47.760;-122.022;2023-02-28T01:32:01;99559.866;;;3.6;unknown
73422;BME280;61637;47.760;-122.022;2023-02-28T01:34:01;99559.866;;;3.6;unknown
73422;BME280;61637;47.760;-122.022;2023-02-28T01:36:01;99559.866;;;3.6;unknown
73422;BME280;61637;47.760;-122.022;2023-02-28T01:38:01;99559.866;;;3.6;unknown
73422;BME280;61637;47.760;-122.022;2023-02-28T01:40:01;99559.866;;;3.6;unknown
73422;BME280;61637;47.760;-122.022;2023-02-28T01:42:01;99559.866;;;3.6;unknown
73422;BME280;61637;47.760;-122.022;2023-02-28T01:44:02;99559.866;;;3.5;unknown
73422;BME280;61637;47.760;-122.022;2023-02-28T01:46:01;99559.866;;;3.6;unknown
73422;BME280;61637;47.760;-122.022;2023-02-28T01:48:02;99559.866;;;3.5;unknown
73422;BME280;61637;47.760;-122.022;2023-02-28T01:50:02;99559.866;;;3.5;unknown
73422;BME280;61637;47.760;-122.022;2023-02-28T01:52:01;99559.866;;;3.5;unknown
73422;BME280;61637;47.760;-122.022;2023-02-28T01:54:01;99559.866;;;3.5;unknown
73422;BME280;61637;47.760;-122.022;2023-02-28T01:56:01;99559.866;;;3.6;unknown
73422;BME280;61637;47.760;-122.022;2023-02-28T01:58:02;99559.866;;;3.6;unknown
73422;BME280;61637;47.760;-122.022;2023-02-28T02:00:02;99559.866;;;3.6;unknown
73422;BME280;61637;47.760;-122.022;2023-02-28T02:02:01;99559.866;;;3.6;unknown
73422;BME280;61637;47.760;-122.022;2023-02-28T02:04:01;99559.866;;;3.6;unknown
73422;BME280;61637;47.760;-122.022;2023-02-28T02:06:01;99559.866;;;3.5;unknown
73422;BME280;61637;47.760;-122.022;2023-02-28T02:08:02;99559.866;;;3.4;unknown
73422;BME280;61637;47.760;-122.022;2023-02-28T02:10:01;99559.866;;;3.4;unknown
73422;BME280;61637;47.760;-122.022;2023-02-28T02:12:01;99559.866;;;3.3;unknown
73422;BME280;61637;47.760;-122.022;2023-02-28T02:14:06;99559.866;;;3.3;unknown
73422;BME280;61637;47.760;-122.022;2023-02-28T02:16:04;99559.866;;;3.2;unknown
73422;BME280;61637;47.760;-122.022;2023-02-28T02:18:02;99559.866;;;3.1;unknown
73422;BME280;61637;47.760;-122.022;2023-02-28T02:22:06;99559.866;;;3.1;unknown
73422;BME280;61637;47.760;-122.022;2023-02-28T02:26:05;99559.866;;;3.0;unknown
73422;BME280;61637;47.760;-122.022;2023-02-28T02:32:06;99559.866;;;2.9;unknown
73422;BME280;61637;47.760;-122.022;2023-02-28T02:34:07;99559.866;;;2.8;unknown
73422;BME280;61637;47.760;-122.022;2023-02-28T02:36:01;99559.866;;;2.8;unknown
73422;BME280;61637;47.760;-122.022;2023-02-28T02:38:03;99559.866;;;2.8;unknown
73422;BME280;61637;47.760;-122.022;2023-02-28T02:40:04;99559.866;;;2.8;unknown
73422;BME280;61637;47.760;-122.022;2023-02-28T02:42:01;99559.866;;;2.7;unknown
73422;BME280;61637;47.760;-122.022;2023-02-28T02:44:02;99559.866;;;2.7;unknown
73422;BME280;61637;47.760;-122.022;2023-02-28T02:46:02;99559.866;;;2.7;unknown
73422;BME280;61637;47.760;-122.022;2023-02-28T02:48:01;99559.866;;;2.6;unknown
73422;BME280;61637;47.760;-122.022;2023-02-28T02:50:02;99559.866;;;2.6;unknown
73422;BME280;61637;47.760;-122.022;2023-02-28T02:52:02;99559.866;;;2.5;unknown
73422;BME280;61637;47.760;-122.022;2023-02-28T02:54:02;99559.866;;;2.5;unknown
73422;BME280;61637;47.760;-122.022;2023-02-28T02:56:01;99559.866;;;2.5;unknown
73422;BME280;61637;47.760;-122.022;2023-02-28T02:58:01;99559.866;;;2.4;unknown
73422;BME280;61637;47.760;-122.022;2023-02-28T03:00:01;99559.866;;;2.4;unknown
73422;BME280;61637;47.760;-122.022;2023-02-28T03:02:01;99559.866;;;2.3;unknown
73422;BME280;61637;47.760;-122.022;2023-02-28T03:04:01;99559.866;;;2.3;unknown
73422;BME280;61637;47.760;-122.022;2023-02-28T03:06:01;99559.866;;;2.4;unknown
73422;BME280;61637;47.760;-122.022;2023-02-28T03:08:03;99559.866;;;2.4;unknown
73422;BME280;61637;47.760;-122.022;2023-02-28T03:10:01;99559.866;;;2.4;unknown
73422;BME280;61637;47.760;-122.022;2023-02-28T03:12:01;99559.866;;;2.5;unknown
73422;BME280;61637;47.760;-122.022;2023-02-28T03:14:08;99559.866;;;2.5;unknown
73422;BME280;61637;47.760;-122.022;2023-02-28T03:16:06;99559.866;;;2.6;unknown
73422;BME280;61637;47.760;-122.022;2023-02-28T03:18:02;99559.866;;;2.6;unknown
73422;BME280;61637;47.760;-122.022;2023-02-28T03:20:04;99559.866;;;2.6;unknown
73422;BME280;61637;47.760;-122.022;2023-02-28T03:22:04;99559.866;;;2.6;unknown
73422;BME280;61637;47.760;-122.022;2023-02-28T03:24:03;99559.866;;;2.4;unknown
73422;BME280;61637;47.760;-122.022;2023-02-28T03:26:02;99559.866;;;2.4;unknown
73422;BME280;61637;47.760;-122.022;2023-02-28T03:28:02;99559.866;;;2.4;unknown
73422;BME280;61637;47.760;-122.022;2023-02-28T03:30:02;99559.866;;;2.4;unknown
73422;BME280;61637;47.760;-122.022;2023-02-28T03:32:02;99559.866;;;2.4;unknown
73422;BME280;61637;47.760;-122.022;2023-02-28T03:34:02;99559.866;;;2.4;unknown
73422;BME280;61637;47.760;-122.022;2023-02-28T03:36:02;99559.866;;;2.4;unknown
73422;BME280;61637;47.760;-122.022;2023-02-28T03:38:03;99559.866;;;2.4;unknown
73422;BME280;61637;47.760;-122.022;2023-02-28T03:40:01;99559.866;;;2.4;unknown
73422;BME280;61637;47.760;-122.022;2023-02-28T03:42:01;99559.866;;;2.4;unknown
73422;BME280;61637;47.760;-122.022;2023-02-28T03:44:03;99559.866;;;2.4;unknown
73422;BME280;61637;47.760;-122.022;2023-02-28T03:46:02;99559.866;;;2.5;unknown
73422;BME280;61637;47.760;-122.022;2023-02-28T03:48:02;99559.866;;;2.5;unknown
73422;BME280;61637;47.760;-122.022;2023-02-28T03:50:02;99559.866;;;2.5;unknown
73422;BME280;61637;47.760;-122.022;2023-02-28T03:52:01;99559.866;;;2.5;unknown
73422;BME280;61637;47.760;-122.022;2023-02-28T03:54:02;99559.866;;;2.5;unknown
73422;BME280;61637;47.760;-122.022;2023-02-28T03:56:03;99559.866;;;2.4;unknown
73422;BME280;61637;47.760;-122.022;2023-02-28T03:58:01;99559.866;;;2.4;unknown
73422;BME280;61637;47.760;-122.022;2023-02-28T04:00:02;99559.866;;;2.4;unknown
73422;BME280;61637;47.760;-122.022;2023-02-28T04:02:01;99559.866;;;2.4;unknown
73422;BME280;61637;47.760;-122.022;2023-02-28T04:04:01;99559.866;;;2.4;unknown
73422;BME280;61637;47.760;-122.022;2023-02-28T04:06:01;99559.866;;;2.4;unknown
73422;BME280;61637;47.760;-122.022;2023-02-28T04:08:04;99559.866;;;2.4;unknown
73422;BME280;61637;47.760;-122.022;2023-02-28T04:10:01;99559.866;;;2.4;unknown
73422;BME280;61637;47.760;-122.022;2023-02-28T04:12:01;99559.866;;;2.4;unknown
73422;BME280;61637;47.760;-122.022;2023-02-28T04:14:01;99559.866;;;2.4;unknown
73422;BME280;61637;47.760;-122.022;2023-02-28T04:16:01;99559.866;;;2.4;unknown
73422;BME280;61637;47.760;-122.022;2023-02-28T04:18:01;99559.866;;;2.4;unknown
73422;BME280;61637;47.760;-122.022;2023-02-28T04:20:01;99559.866;;;2.4;unknown
73422;BME280;61637;47.760;-122.022;2023-02-28T04:22:01;99559.866;;;2.3;unknown
73422;BME280;61637;47.760;-122.022;2023-02-28T04:24:01;99559.866;;;2.3;unknown
73422;BME280;61637;47.760;-122.022;2023-02-28T04:26:01;99559.866;;;2.2;unknown
73422;BME280;61637;47.760;-122.022;2023-02-28T04:28:01;99559.866;;;2.2;unknown
73422;BME280;61637;47.760;-122.022;2023-02-28T04:30:01;99559.866;;;2.2;unknown
73422;BME280;61637;47.760;-122.022;2023-02-28T04:32:01;99559.866;;;2.1;unknown
73422;BME280;61637;47.760;-122.022;2023-02-28T04:34:01;99559.866;;;2.1;unknown
73422;BME280;61637;47.760;-122.022;2023-02-28T04:36:01;99559.866;;;2.1;unknown
73422;BME280;61637;47.760;-122.022;2023-02-28T04:38:01;99559.866;;;2.1;unknown
73422;BME280;61637;47.760;-122.022;2023-02-28T04:40:01;99559.866;;;2.1;unknown
73422;BME280;61637;47.760;-122.022;2023-02-28T04:42:01;99559.866;;;2.1;unknown
73422;BME280;61637;47.760;-122.022;2023-02-28T04:44:01;99559.866;;;2.1;unknown
73422;BME280;61637;47.760;-122.022;2023-02-28T04:46:01;99559.866;;;2.0;unknown
73422;BME280;61637;47.760;-122.022;2023-02-28T04:48:01;99559.866;;;2.0;unknown
73422;BME280;61637;47.760;-122.022;2023-02-28T04:50:01;99559.866;;;2.0;unknown
73422;BME280;61637;47.760;-122.022;2023-02-28T04:52:01;99559.866;;;2.0;unknown
73422;BME280;61637;47.760;-122.022;2023-02-28T04:54:01;99559.866;;;2.1;unknown
73422;BME280;61637;47.760;-122.022;2023-02-28T04:56:01;99559.866;;;2.1;unknown
73422;BME280;61637;47.760;-122.022;2023-02-28T04:58:01;99559.866;;;2.1;unknown
73422;BME280;61637;47.760;-122.022;2023-02-28T05:00:01;99559.866;;;2.1;unknown
73422;BME280;61637;47.760;-122.022;2023-02-28T05:02:01;99559.866;;;2.2;unknown
73422;BME280;61637;47.760;-122.022;2023-02-28T05:04:01;99559.866;;;2.2;unknown
73422;BME280;61637;47.760;-122.022;2023-02-28T05:06:01;99559.866;;;2.2;unknown
73422;BME280;61637;47.760;-122.022;2023-02-28T05:08:01;99559.866;;;2.2;unknown
73422;BME280;61637;47.760;-122.022;2023-02-28T05:10:01;99559.866;;;2.2;unknown
73422;BME280;61637;47.760;-122.022;2023-02-28T05:12:01;99559.866;;;2.2;unknown
73422;BME280;61637;47.760;-122.022;2023-02-28T05:14:01;99559.866;;;2.2;unknown
73422;BME280;61637;47.760;-122.022;2023-02-28T05:16:01;99559.866;;;2.2;unknown
73422;BME280;61637;47.760;-122.022;2023-02-28T05:18:01;99559.866;;;2.2;unknown
73422;BME280;61637;47.760;-122.022;2023-02-28T05:20:01;99559.866;;;2.2;unknown
73422;BME280;61637;47.760;-122.022;2023-02-28T05:22:01;99559.866;;;2.2;unknown
73422;BME280;61637;47.760;-122.022;2023-02-28T05:24:01;99559.866;;;2.2;unknown
73422;BME280;61637;47.760;-122.022;2023-02-28T05:26:01;99559.866;;;2.2;unknown
73422;BME280;61637;47.760;-122.022;2023-02-28T05:28:01;99559.866;;;2.1;unknown
73422;BME280;61637;47.760;-122.022;2023-02-28T05:30:01;99559.866;;;2.1;unknown
73422;BME280;61637;47.760;-122.022;2023-02-28T05:32:01;99559.866;;;2.2;unknown
73422;BME280;61637;47.760;-122.022;2023-02-28T05:34:01;99559.866;;;2.1;unknown
73422;BME280;61637;47.760;-122.022;2023-02-28T05:36:01;99559.866;;;2.2;unknown
73422;BME280;61637;47.760;-122.022;2023-02-28T05:38:01;99559.866;;;2.2;unknown
73422;BME280;61637;47.760;-122.022;2023-02-28T05:40:01;99559.866;;;2.2;unknown
73422;BME280;61637;47.760;-122.022;2023-02-28T05:42:01;99559.866;;;2.2;unknown
73422;BME280;61637;47.760;-122.022;2023-02-28T05:44:01;99559.866;;;2.2;unknown
73422;BME280;61637;47.760;-122.022;2023-02-28T05:46:02;99559.866;;;2.2;unknown
73422;BME280;61637;47.760;-122.022;2023-02-28T05:48:01;99559.866;;;2.2;unknown
73422;BME280;61637;47.760;-122.022;2023-02-28T05:50:01;99559.866;;;2.1;unknown
73422;BME280;61637;47.760;-122.022;2023-02-28T05:52:01;99559.866;;;2.2;unknown
73422;BME280;61637;47.760;-122.022;2023-02-28T05:54:01;99559.866;;;2.1;unknown
73422;BME280;61637;47.760;-122.022;2023-02-28T05:56:01;99559.866;;;2.1;unknown
73422;BME280;61637;47.760;-122.022;2023-02-28T05:58:01;99559.866;;;2.1;unknown
73422;BME280;61637;47.760;-122.022;2023-02-28T06:00:01;99559.866;;;2.1;unknown
73422;BME280;61637;47.760;-122.022;2023-02-28T06:02:01;99559.866;;;2.1;unknown
73422;BME280;61637;47.760;-122.022;2023-02-28T06:04:01;99559.866;;;2.1;unknown
73422;BME280;61637;47.760;-122.022;2023-02-28T06:06:01;99559.866;;;2.1;unknown
73422;BME280;61637;47.760;-122.022;2023-02-28T06:08:01;99559.866;;;2.1;unknown
73422;BME280;61637;47.760;-122.022;2023-02-28T06:10:01;99559.866;;;2.1;unknown
73422;BME280;61637;47.760;-122.022;2023-02-28T06:12:01;99559.866;;;2.1;unknown
73422;BME280;61637;47.760;-122.022;2023-02-28T06:14:01;99559.866;;;2.1;unknown
73422;BME280;61637;47.760;-122.022;2023-02-28T06:16:01;99559.866;;;2.1;unknown
73422;BME280;61637;47.760;-122.022;2023-02-28T06:18:01;99559.866;;;2.1;unknown
73422;BME280;61637;47.760;-122.022;2023-02-28T06:20:01;99559.866;;;2.1;unknown
73422;BME280;61637;47.760;-122.022;2023-02-28T06:22:01;99559.866;;;2.1;unknown
73422;BME280;61637;47.760;-122.022;2023-02-28T06:24:01;99559.866;;;2.1;unknown
73422;BME280;61637;47.760;-122.022;2023-02-28T06:26:01;99559.866;;;2.1;unknown
73422;BME280;61637;47.760;-122.022;2023-02-28T06:28:01;99559.866;;;2.1;unknown
73422;BME280;61637;47.760;-122.022;2023-02-28T06:30:02;99559.866;;;2.0;unknown
73422;BME280;61637;47.760;-122.022;2023-02-28T06:32:01;99559.866;;;2.0;unknown
73422;BME280;61637;47.760;-122.022;2023-02-28T06:34:01;99559.866;;;2.0;unknown
73422;BME280;61637;47.760;-122.022;2023-02-28T06:36:01;99559.866;;;2.0;unknown
73422;BME280;61637;47.760;-122.022;2023-02-28T06:38:01;99559.866;;;2.0;unknown
73422;BME280;61637;47.760;-122.022;2023-02-28T06:40:01;99559.866;;;2.0;unknown
73422;BME280;61637;47.760;-122.022;2023-02-28T06:42:01;99559.866;;;2.0;unknown
73422;BME280;61637;47.760;-122.022;2023-02-28T06:44:01;99559.866;;;2.0;unknown
73422;BME280;61637;47.760;-122.022;2023-02-28T06:46:02;99559.866;;;2.0;unknown
73422;BME280;61637;47.760;-122.022;2023-02-28T06:48:01;99559.866;;;2.0;unknown
73422;BME280;61637;47.760;-122.022;2023-02-28T06:50:01;99559.866;;;2.0;unknown
73422;BME280;61637;47.760;-122.022;2023-02-28T06:52:01;99559.866;;;2.1;unknown
73422;BME280;61637;47.760;-122.022;2023-02-28T06:54:01;99559.866;;;2.1;unknown
73422;BME280;61637;47.760;-122.022;2023-02-28T06:56:03;99559.866;;;2.1;unknown
73422;BME280;61637;47.760;-122.022;2023-02-28T06:58:01;99559.866;;;2.1;unknown
73422;BME280;61637;47.760;-122.022;2023-02-28T07:00:02;99559.866;;;2.1;unknown
73422;BME280;61637;47.760;-122.022;2023-02-28T07:02:01;99559.866;;;2.1;unknown
73422;BME280;61637;47.760;-122.022;2023-02-28T07:04:01;99559.866;;;2.1;unknown
73422;BME280;61637;47.760;-122.022;2023-02-28T07:06:01;99559.866;;;2.2;unknown
73422;BME280;61637;47.760;-122.022;2023-02-28T07:08:01;99559.866;;;2.2;unknown
73422;BME280;61637;47.760;-122.022;2023-02-28T07:10:01;99559.866;;;2.2;unknown
73422;BME280;61637;47.760;-122.022;2023-02-28T07:12:01;99559.866;;;2.2;unknown
73422;BME280;61637;47.760;-122.022;2023-02-28T07:14:01;99559.866;;;2.2;unknown
73422;BME280;61637;47.760;-122.022;2023-02-28T07:16:01;99559.866;;;2.2;unknown
73422;BME280;61637;47.760;-122.022;2023-02-28T07:18:01;99559.866;;;2.2;unknown
73422;BME280;61637;47.760;-122.022;2023-02-28T07:20:01;99559.866;;;2.2;unknown
73422;BME280;61637;47.760;-122.022;2023-02-28T07:22:01;99559.866;;;2.2;unknown
73422;BME280;61637;47.760;-122.022;2023-02-28T07:24:01;99559.866;;;2.2;unknown
73422;BME280;61637;47.760;-122.022;2023-02-28T07:26:01;99559.866;;;2.2;unknown
73422;BME280;61637;47.760;-122.022;2023-02-28T07:28:01;99559.866;;;2.2;unknown
73422;BME280;61637;47.760;-122.022;2023-02-28T07:30:01;99559.866;;;2.2;unknown
73422;BME280;61637;47.760;-122.022;2023-02-28T07:32:01;99559.866;;;2.2;unknown
73422;BME280;61637;47.760;-122.022;2023-02-28T07:34:01;99559.866;;;2.3;unknown
73422;BME280;61637;47.760;-122.022;2023-02-28T07:36:01;99559.866;;;2.2;unknown
73422;BME280;61637;47.760;-122.022;2023-02-28T07:38:01;99559.866;;;2.2;unknown
73422;BME280;61637;47.760;-122.022;2023-02-28T07:40:01;99559.866;;;2.2;unknown
73422;BME280;61637;47.760;-122.022;2023-02-28T07:42:03;99559.866;;;2.2;unknown
73422;BME280;61637;47.760;-122.022;2023-02-28T07:44:01;99559.866;;;2.1;unknown
73422;BME280;61637;47.760;-122.022;2023-02-28T07:46:01;99559.866;;;2.1;unknown
73422;BME280;61637;47.760;-122.022;2023-02-28T07:48:01;99559.866;;;2.1;unknown
73422;BME280;61637;47.760;-122.022;2023-02-28T07:50:01;99559.866;;;2.1;unknown
73422;BME280;61637;47.760;-122.022;2023-02-28T07:52:01;99559.866;;;2.1;unknown
73422;BME280;61637;47.760;-122.022;2023-02-28T07:54:01;99559.866;;;2.0;unknown
73422;BME280;61637;47.760;-122.022;2023-02-28T07:56:01;99559.866;;;2.0;unknown
73422;BME280;61637;47.760;-122.022;2023-02-28T07:58:01;99559.866;;;1.9;unknown
73422;BME280;61637;47.760;-122.022;2023-02-28T08:00:01;99559.866;;;1.9;unknown
73422;BME280;61637;47.760;-122.022;2023-02-28T08:02:01;99559.866;;;1.8;unknown
73422;BME280;61637;47.760;-122.022;2023-02-28T08:04:01;99559.866;;;1.7;unknown
73422;BME280;61637;47.760;-122.022;2023-02-28T08:06:01;99559.866;;;1.6;unknown
73422;BME280;61637;47.760;-122.022;2023-02-28T08:08:01;99559.866;;;1.4;unknown
73422;BME280;61637;47.760;-122.022;2023-02-28T08:10:01;99559.866;;;1.3;unknown
73422;BME280;61637;47.760;-122.022;2023-02-28T08:12:01;99559.866;;;1.3;unknown
73422;BME280;61637;47.760;-122.022;2023-02-28T08:14:01;99559.866;;;1.2;unknown
73422;BME280;61637;47.760;-122.022;2023-02-28T08:16:01;99559.866;;;1.1;unknown
73422;BME280;61637;47.760;-122.022;2023-02-28T08:18:01;99559.866;;;1.1;unknown
73422;BME280;61637;47.760;-122.022;2023-02-28T08:20:01;99559.866;;;1.1;unknown
73422;BME280;61637;47.760;-122.022;2023-02-28T08:22:01;99559.866;;;1.0;unknown
73422;BME280;61637;47.760;-122.022;2023-02-28T08:24:01;99559.866;;;1.0;unknown
73422;BME280;61637;47.760;-122.022;2023-02-28T08:26:01;99559.866;;;0.9;unknown
73422;BME280;61637;47.760;-122.022;2023-02-28T08:28:01;99559.866;;;0.9;unknown
73422;BME280;61637;47.760;-122.022;2023-02-28T08:30:01;99559.866;;;0.9;unknown
73422;BME280;61637;47.760;-122.022;2023-02-28T08:32:01;99559.866;;;0.9;unknown
73422;BME280;61637;47.760;-122.022;2023-02-28T08:34:02;99559.866;;;0.9;unknown
73422;BME280;61637;47.760;-122.022;2023-02-28T08:36:01;99559.866;;;0.9;unknown
73422;BME280;61637;47.760;-122.022;2023-02-28T08:38:01;99559.866;;;0.8;unknown
73422;BME280;61637;47.760;-122.022;2023-02-28T08:40:01;99559.866;;;0.8;unknown
73422;BME280;61637;47.760;-122.022;2023-02-28T08:42:01;99559.866;;;0.8;unknown
73422;BME280;61637;47.760;-122.022;2023-02-28T08:44:01;99559.866;;;0.8;unknown
73422;BME280;61637;47.760;-122.022;2023-02-28T08:46:01;99559.866;;;0.8;unknown
73422;BME280;61637;47.760;-122.022;2023-02-28T08:48:01;99559.866;;;0.8;unknown
73422;BME280;61637;47.760;-122.022;2023-02-28T08:50:01;99559.866;;;0.8;unknown
73422;BME280;61637;47.760;-122.022;2023-02-28T08:52:01;99559.866;;;0.8;unknown
73422;BME280;61637;47.760;-122.022;2023-02-28T08:54:01;99559.866;;;0.8;unknown
73422;BME280;61637;47.760;-122.022;2023-02-28T08:56:01;99559.866;;;0.8;unknown
73422;BME280;61637;47.760;-122.022;2023-02-28T08:58:01;99559.866;;;0.8;unknown
73422;BME280;61637;47.760;-122.022;2023-02-28T09:00:01;99559.866;;;0.8;unknown
73422;BME280;61637;47.760;-122.022;2023-02-28T09:02:01;99559.866;;;0.8;unknown
73422;BME280;61637;47.760;-122.022;2023-02-28T09:04:01;99559.866;;;0.7;unknown
73422;BME280;61637;47.760;-122.022;2023-02-28T09:06:01;99559.866;;;0.8;unknown
73422;BME280;61637;47.760;-122.022;2023-02-28T09:08:01;99559.866;;;0.7;unknown
73422;BME280;61637;47.760;-122.022;2023-02-28T09:10:01;99559.866;;;0.7;unknown
73422;BME280;61637;47.760;-122.022;2023-02-28T09:12:01;99559.866;;;0.7;unknown
73422;BME280;61637;47.760;-122.022;2023-02-28T09:14:01;99559.866;;;0.7;unknown
73422;BME280;61637;47.760;-122.022;2023-02-28T09:16:02;99559.866;;;0.7;unknown
73422;BME280;61637;47.760;-122.022;2023-02-28T09:18:01;99559.866;;;0.7;unknown
73422;BME280;61637;47.760;-122.022;2023-02-28T09:20:01;99559.866;;;0.7;unknown
73422;BME280;61637;47.760;-122.022;2023-02-28T09:22:01;99559.866;;;0.7;unknown
73422;BME280;61637;47.760;-122.022;2023-02-28T09:24:01;99559.866;;;0.7;unknown
73422;BME280;61637;47.760;-122.022;2023-02-28T09:26:01;99559.866;;;0.7;unknown
73422;BME280;61637;47.760;-122.022;2023-02-28T09:28:01;99559.866;;;0.7;unknown
73422;BME280;61637;47.760;-122.022;2023-02-28T09:30:01;99559.866;;;0.7;unknown
73422;BME280;61637;47.760;-122.022;2023-02-28T09:32:01;99559.866;;;0.7;unknown
73422;BME280;61637;47.760;-122.022;2023-02-28T09:34:01;99559.866;;;0.7;unknown
73422;BME280;61637;47.760;-122.022;2023-02-28T09:36:01;99559.866;;;0.7;unknown
73422;BME280;61637;47.760;-122.022;2023-02-28T09:38:01;99559.866;;;0.7;unknown
73422;BME280;61637;47.760;-122.022;2023-02-28T09:40:01;99559.866;;;0.7;unknown
73422;BME280;61637;47.760;-122.022;2023-02-28T09:42:01;99559.866;;;0.7;unknown
73422;BME280;61637;47.760;-122.022;2023-02-28T09:44:01;99559.866;;;0.7;unknown
73422;BME280;61637;47.760;-122.022;2023-02-28T09:46:02;99559.866;;;0.6;unknown
73422;BME280;61637;47.760;-122.022;2023-02-28T09:48:01;99559.866;;;0.7;unknown
73422;BME280;61637;47.760;-122.022;2023-02-28T09:50:03;99559.866;;;0.6;unknown
73422;BME280;61637;47.760;-122.022;2023-02-28T09:52:02;99559.866;;;0.7;unknown
73422;BME280;61637;47.760;-122.022;2023-02-28T09:54:01;99559.866;;;0.7;unknown
73422;BME280;61637;47.760;-122.022;2023-02-28T09:56:02;99559.866;;;0.6;unknown
73422;BME280;61637;47.760;-122.022;2023-02-28T09:58:01;99559.866;;;0.7;unknown
73422;BME280;61637;47.760;-122.022;2023-02-28T10:00:03;99559.866;;;0.6;unknown
73422;BME280;61637;47.760;-122.022;2023-02-28T10:02:03;99559.866;;;0.7;unknown
73422;BME280;61637;47.760;-122.022;2023-02-28T10:04:03;99559.866;;;0.6;unknown
73422;BME280;61637;47.760;-122.022;2023-02-28T10:06:02;99559.866;;;0.6;unknown